createdAt,value
2018-06-17T00:01:18.848Z,5.50
2018-06-17T00:03:47.799Z,9.83
2018-06-17T00:06:16.604Z,4.23
2018-06-17T00:08:45.448Z,12.03
2018-06-17T00:11:14.308Z,8.97
2018-06-17T00:13:43.164Z,4.63
2018-06-17T00:16:12.048Z,7.33
2018-06-17T00:18:41.028Z,6.60
2018-06-17T00:21:09.887Z,12.60
2018-06-17T00:23:38.757Z,5.70
2018-06-17T00:26:07.596Z,6.10
2018-06-17T00:28:36.436Z,5.83
2018-06-17T00:31:05.279Z,4.83
2018-06-17T00:33:34.127Z,4.83
2018-06-17T00:36:02.976Z,9.10
2018-06-17T00:38:31.821Z,6.40
2018-06-17T00:41:00.687Z,7.13
2018-06-17T00:43:29.535Z,8.00
2018-06-17T00:45:58.408Z,5.90
2018-06-17T00:48:27.257Z,6.30
2018-06-17T00:50:56.104Z,8.50
2018-06-17T00:53:24.946Z,6.40
2018-06-17T00:55:53.789Z,5.33
2018-06-17T00:58:22.636Z,6.33
2018-06-17T01:00:51.481Z,7.50
2018-06-17T01:03:20.324Z,6.67
2018-06-17T01:05:49.172Z,6.87
2018-06-17T01:08:18.008Z,7.57
2018-06-17T01:10:46.837Z,6.87
2018-06-17T01:13:15.685Z,7.43
2018-06-17T01:15:44.525Z,6.17
2018-06-17T01:18:13.375Z,6.47
2018-06-17T01:20:42.244Z,6.47
2018-06-17T01:23:11.096Z,7.03
2018-06-17T01:25:39.948Z,11.17
2018-06-17T01:28:08.808Z,6.07
2018-06-17T01:30:37.652Z,8.00
2018-06-17T01:33:06.496Z,9.67
2018-06-17T01:35:35.356Z,5.50
2018-06-17T01:38:04.224Z,7.13
2018-06-17T01:40:33.063Z,8.07
2018-06-17T01:43:01.904Z,6.37
2018-06-17T01:45:30.751Z,8.60
2018-06-17T01:47:59.600Z,8.03
2018-06-17T01:50:28.522Z,6.00
2018-06-17T01:52:57.372Z,6.07
2018-06-17T01:55:26.211Z,7.80
2018-06-17T01:57:55.063Z,8.10
2018-06-17T02:00:23.928Z,7.13
2018-06-17T02:02:52.774Z,9.10
2018-06-17T02:05:26.967Z,6.53
2018-06-17T02:08:01.269Z,5.97
2018-06-17T02:10:35.676Z,5.40
2018-06-17T02:13:04.517Z,5.50
2018-06-17T02:15:33.371Z,5.60
2018-06-17T02:18:02.233Z,5.37
2018-06-17T02:20:31.088Z,5.90
2018-06-17T02:22:59.919Z,8.87
2018-06-17T02:25:28.756Z,6.13
2018-06-17T02:27:57.623Z,5.93
2018-06-17T02:30:26.468Z,6.83
2018-06-17T02:32:55.319Z,6.10
2018-06-17T02:35:24.167Z,6.10
2018-06-17T02:37:53.060Z,6.00
2018-06-17T02:40:21.908Z,10.00
2018-06-17T02:42:50.768Z,8.43
2018-06-17T02:45:24.973Z,10.30
2018-06-17T02:47:59.128Z,5.43
2018-06-17T02:50:33.360Z,7.07
2018-06-17T02:53:07.520Z,6.63
2018-06-17T02:55:36.344Z,8.17
2018-06-17T02:58:05.176Z,6.37
2018-06-17T03:00:34.045Z,5.70
2018-06-17T03:03:02.900Z,5.57
2018-06-17T03:05:31.753Z,8.33
2018-06-17T03:08:00.597Z,6.63
2018-06-17T03:10:29.440Z,8.73
2018-06-17T03:12:58.275Z,5.93
2018-06-17T03:15:27.130Z,5.30
2018-06-17T03:17:55.984Z,7.33
2018-06-17T03:20:24.820Z,6.53
2018-06-17T03:22:53.668Z,6.37
2018-06-17T03:25:27.888Z,9.20
2018-06-17T03:28:02.165Z,6.97
2018-06-17T03:30:36.292Z,8.93
2018-06-17T03:33:10.524Z,9.03
2018-06-17T03:35:44.961Z,5.93
2018-06-17T03:38:13.803Z,4.90
2018-06-17T03:40:42.644Z,5.17
2018-06-17T03:43:11.488Z,5.40
2018-06-17T03:45:40.353Z,6.07
2018-06-17T03:48:09.196Z,6.47
2018-06-17T03:50:38.044Z,4.77
2018-06-17T03:53:06.892Z,5.87
2018-06-17T03:55:35.848Z,5.10
2018-06-17T03:58:04.540Z,6.87
2018-06-17T04:00:33.260Z,6.13
2018-06-17T04:03:02.101Z,7.43
2018-06-17T04:05:30.953Z,5.37
2018-06-17T04:08:00.768Z,7.13
2018-06-17T04:10:29.692Z,7.90
2018-06-17T04:12:58.539Z,5.23
2018-06-17T04:15:27.391Z,7.37
2018-06-17T04:17:56.250Z,5.47
2018-06-17T04:20:25.105Z,6.23
2018-06-17T04:22:53.947Z,5.67
2018-06-17T04:25:22.844Z,8.83
2018-06-17T04:27:51.648Z,6.43
2018-06-17T04:30:20.499Z,9.57
2018-06-17T04:32:49.337Z,5.80
2018-06-17T04:35:18.175Z,7.67
2018-06-17T04:37:47.036Z,8.23
2018-06-17T04:40:15.864Z,7.83
2018-06-17T04:42:44.767Z,7.77
2018-06-17T04:45:13.611Z,8.90
2018-06-17T04:47:42.517Z,9.20
2018-06-17T04:50:11.381Z,9.07
2018-06-17T04:52:40.279Z,8.20
2018-06-17T04:55:09.169Z,7.63
2018-06-17T04:57:38.032Z,8.40
2018-06-17T05:00:07.031Z,6.57
2018-06-17T05:02:35.804Z,10.50
2018-06-17T05:05:04.784Z,14.63
2018-06-17T05:07:33.630Z,10.40
2018-06-17T05:10:02.503Z,10.30
2018-06-17T05:12:31.373Z,8.50
2018-06-17T05:15:00.220Z,9.80
2018-06-17T05:17:29.060Z,7.30
2018-06-17T05:19:57.917Z,10.50
2018-06-17T05:22:26.761Z,8.30
2018-06-17T05:24:55.617Z,12.90
2018-06-17T05:27:24.489Z,6.53
2018-06-17T05:29:53.355Z,8.23
2018-06-17T05:32:22.193Z,9.47
2018-06-17T05:34:51.059Z,10.57
2018-06-17T05:37:19.922Z,6.63
2018-06-17T05:39:48.543Z,8.90
2018-06-17T05:42:17.273Z,6.33
2018-06-17T05:44:46.141Z,10.50
2018-06-17T05:47:15.028Z,6.00
2018-06-17T05:49:43.880Z,6.97
2018-06-17T05:52:12.724Z,10.33
2018-06-17T05:54:41.568Z,13.53
2018-06-17T05:57:10.412Z,8.63
2018-06-17T05:59:39.247Z,10.60
2018-06-17T06:02:08.084Z,15.00
2018-06-17T06:04:36.957Z,8.13
2018-06-17T06:07:05.812Z,11.83
2018-06-17T06:09:34.451Z,7.63
2018-06-17T06:12:03.200Z,6.10
2018-06-17T06:14:32.027Z,12.00
2018-06-17T06:17:00.672Z,12.30
2018-06-17T06:19:29.415Z,8.10
2018-06-17T06:21:58.256Z,12.43
2018-06-17T06:24:27.153Z,7.23
2018-06-17T06:26:56.260Z,14.20
2018-06-17T06:29:25.116Z,14.40
2018-06-17T06:31:53.964Z,8.40
2018-06-17T06:34:22.815Z,12.03
2018-06-17T06:36:51.655Z,11.00
2018-06-17T06:39:20.540Z,10.20
2018-06-17T06:41:49.392Z,9.50
2018-06-17T06:44:18.284Z,12.53
2018-06-17T06:46:47.136Z,14.87
2018-06-17T06:49:16.040Z,17.17
2018-06-17T06:51:44.887Z,14.97
2018-06-17T06:54:13.764Z,8.50
2018-06-17T06:56:42.640Z,10.37
2018-06-17T06:59:11.489Z,13.10
2018-06-17T07:01:51.903Z,8.93
2018-06-17T07:04:32.224Z,11.17
2018-06-17T07:07:12.500Z,8.23
2018-06-17T07:09:52.856Z,12.73
2018-06-17T07:12:21.720Z,12.80
2018-06-17T07:14:50.585Z,13.70
2018-06-17T07:17:31.004Z,9.17
2018-06-17T07:19:59.856Z,17.77
2018-06-17T07:22:28.474Z,15.90
2018-06-17T07:24:57.100Z,17.20
2018-06-17T07:27:37.145Z,9.83
2018-06-17T07:30:05.760Z,17.60
2018-06-17T07:32:34.414Z,12.83
2018-06-17T07:35:03.024Z,11.57
2018-06-17T07:37:31.629Z,10.97
2018-06-17T07:41:03.247Z,18.63
2018-06-17T07:43:31.871Z,12.33
2018-06-17T07:46:00.477Z,12.20
2018-06-17T07:49:44.288Z,12.37
2018-06-17T07:52:25.516Z,11.43
2018-06-17T07:54:54.208Z,10.37
2018-06-17T07:57:24.033Z,10.73
2018-06-17T07:59:52.712Z,12.03
2018-06-17T08:02:21.348Z,9.67
2018-06-17T08:04:49.960Z,10.80
2018-06-17T08:07:18.596Z,7.87
2018-06-17T08:09:47.232Z,8.87
2018-06-17T08:12:15.855Z,9.90
2018-06-17T08:14:44.479Z,8.33
2018-06-17T08:17:13.098Z,9.80
2018-06-17T08:19:42.073Z,7.07
2018-06-17T08:22:10.704Z,6.00
2018-06-17T08:24:39.485Z,6.43
2018-06-17T08:27:08.084Z,9.23
2018-06-17T08:29:36.693Z,12.10
2018-06-17T08:32:05.300Z,9.07
2018-06-17T08:34:33.936Z,10.50
2018-06-17T08:37:02.567Z,7.30
2018-06-17T08:39:31.176Z,11.33
2018-06-17T08:41:59.812Z,7.93
2018-06-17T08:44:28.416Z,5.33
2018-06-17T08:46:57.096Z,13.63
2018-06-17T08:49:25.724Z,10.47
2018-06-17T08:51:54.379Z,6.57
2018-06-17T08:54:22.981Z,4.90
2018-06-17T08:56:51.680Z,8.53
2018-06-17T08:59:20.300Z,8.63
2018-06-17T09:01:48.908Z,10.77
2018-06-17T09:04:17.528Z,9.70
2018-06-17T09:06:45.954Z,7.13
2018-06-17T09:09:14.548Z,15.00
2018-06-17T09:11:42.939Z,9.53
2018-06-17T09:14:11.488Z,5.70
2018-06-17T09:16:40.124Z,8.80
2018-06-17T09:19:08.760Z,7.93
2018-06-17T09:21:37.389Z,5.07
2018-06-17T09:24:06.037Z,8.90
2018-06-17T09:26:34.558Z,7.73
2018-06-17T09:29:03.076Z,7.07
2018-06-17T09:31:31.680Z,5.07
2018-06-17T09:34:00.308Z,6.10
2018-06-17T09:36:28.930Z,6.10
2018-06-17T09:38:57.528Z,5.33
2018-06-17T09:41:26.136Z,6.33
2018-06-17T09:43:54.837Z,16.27
2018-06-17T09:46:23.461Z,4.13
2018-06-17T09:48:52.096Z,7.27
2018-06-17T09:51:20.708Z,7.43
2018-06-17T09:53:49.319Z,3.37
2018-06-17T09:56:17.937Z,6.37
2018-06-17T09:58:46.543Z,5.63
2018-06-17T10:01:15.169Z,5.77
2018-06-17T10:03:43.796Z,8.33
2018-06-17T10:06:12.408Z,7.30
2018-06-17T10:08:41.069Z,7.30
2018-06-17T10:11:09.728Z,6.00
2018-06-17T10:13:41.925Z,6.50
2018-06-17T10:16:11.202Z,6.53
2018-06-17T10:18:40.074Z,6.10
2018-06-17T10:21:08.959Z,5.03
2018-06-17T10:23:37.574Z,5.03
2018-06-17T10:26:06.300Z,5.20
2018-06-17T10:28:35.792Z,5.03
2018-06-17T10:31:05.902Z,4.97
2018-06-17T10:33:35.556Z,7.50
2018-06-17T10:36:04.438Z,8.40
2018-06-17T10:38:33.080Z,4.50
2018-06-17T10:41:01.843Z,4.77
2018-06-17T10:43:31.721Z,3.33
2018-06-17T10:46:00.565Z,5.17
2018-06-17T10:48:29.532Z,4.73
2018-06-17T10:50:58.415Z,3.40
2018-06-17T10:53:27.261Z,3.80
2018-06-17T10:55:56.164Z,3.17
2018-06-17T10:58:24.964Z,6.40
2018-06-17T11:00:53.812Z,6.97
2018-06-17T11:03:22.720Z,6.63
2018-06-17T11:05:51.571Z,5.77
2018-06-17T11:08:20.448Z,6.43
2018-06-17T11:10:49.300Z,2.07
2018-06-17T11:13:18.184Z,4.03
2018-06-17T11:15:47.036Z,3.13
2018-06-17T11:18:15.914Z,2.73
2018-06-17T11:20:44.772Z,3.73
2018-06-17T11:23:13.639Z,5.33
2018-06-17T11:25:42.539Z,4.90
2018-06-17T11:28:11.417Z,5.63
2018-06-17T11:30:40.259Z,3.10
2018-06-17T11:33:09.118Z,2.97
2018-06-17T11:35:38.024Z,6.17
2018-06-17T11:38:07.491Z,2.10
2018-06-17T11:40:36.208Z,3.50
2018-06-17T11:43:05.084Z,7.60
2018-06-17T11:45:33.949Z,5.47
2018-06-17T11:48:02.801Z,3.63
2018-06-17T11:50:31.664Z,5.60
2018-06-17T11:53:00.553Z,5.27
2018-06-17T11:55:29.413Z,3.40
2018-06-17T11:57:58.273Z,6.17
2018-06-17T12:00:27.124Z,4.80
2018-06-17T12:02:56.076Z,5.23
2018-06-17T12:05:24.955Z,4.67
2018-06-17T12:07:53.798Z,5.73
2018-06-17T12:10:22.643Z,5.87
2018-06-17T12:12:51.500Z,3.37
2018-06-17T12:15:20.360Z,3.50
2018-06-17T12:17:49.209Z,5.73
2018-06-17T12:20:18.084Z,3.23
2018-06-17T12:22:46.942Z,4.70
2018-06-17T12:25:15.803Z,6.93
2018-06-17T12:27:44.648Z,5.77
2018-06-17T12:30:13.500Z,3.03
2018-06-17T12:32:42.403Z,4.83
2018-06-17T12:35:11.284Z,7.50
2018-06-17T12:37:40.129Z,6.30
2018-06-17T12:40:08.972Z,4.90
2018-06-17T12:42:37.826Z,5.40
2018-06-17T12:45:06.672Z,2.03
2018-06-17T12:47:35.529Z,5.10
2018-06-17T12:50:04.428Z,4.23
2018-06-17T12:52:33.272Z,1.90
2018-06-17T12:55:02.188Z,5.87
2018-06-17T12:57:31.051Z,2.13
2018-06-17T12:59:59.923Z,4.07
2018-06-17T13:02:28.794Z,3.43
2018-06-17T13:04:57.651Z,3.43
2018-06-17T13:07:26.580Z,5.83
2018-06-17T13:09:55.609Z,5.70
2018-06-17T13:12:24.469Z,3.77
2018-06-17T13:14:53.332Z,2.80
2018-06-17T13:17:22.204Z,2.00
2018-06-17T13:19:51.052Z,2.00
2018-06-17T13:22:19.932Z,2.63
2018-06-17T13:24:48.796Z,2.10
2018-06-17T13:27:17.715Z,3.63
2018-06-17T13:29:46.544Z,2.70
2018-06-17T13:32:15.401Z,5.30
2018-06-17T13:34:44.252Z,1.50
2018-06-17T13:37:13.124Z,2.20
2018-06-17T13:39:41.984Z,8.60
2018-06-17T13:42:10.827Z,5.17
2018-06-17T13:44:39.696Z,2.20
2018-06-17T13:47:08.571Z,2.50
2018-06-17T13:49:37.503Z,2.30
2018-06-17T13:52:06.364Z,4.80
2018-06-17T13:54:35.220Z,2.43
2018-06-17T13:57:04.144Z,2.03
2018-06-17T13:59:33.015Z,2.20
2018-06-17T14:02:01.861Z,1.67
2018-06-17T14:04:30.711Z,2.27
2018-06-17T14:06:59.576Z,2.80
2018-06-17T14:09:28.452Z,1.80
2018-06-17T14:11:57.279Z,6.53
2018-06-17T14:14:26.144Z,4.73
2018-06-17T14:16:55.081Z,6.90
2018-06-17T14:19:23.928Z,4.57
2018-06-17T14:21:52.972Z,4.63
2018-06-17T14:24:21.833Z,3.53
2018-06-17T14:26:50.701Z,3.20
2018-06-17T14:29:19.619Z,4.10
2018-06-17T14:31:48.461Z,3.93
2018-06-17T14:34:17.313Z,3.70
2018-06-17T14:36:46.212Z,3.23
2018-06-17T14:39:15.065Z,5.00
2018-06-17T14:41:43.921Z,3.53
2018-06-17T14:44:18.180Z,4.20
2018-06-17T14:46:52.273Z,6.67
2018-06-17T14:49:26.481Z,3.67
2018-06-17T14:52:00.888Z,3.97
2018-06-17T14:54:29.728Z,2.90
2018-06-17T14:56:58.795Z,4.60
2018-06-17T14:59:27.651Z,2.90
2018-06-17T15:01:56.504Z,2.60
2018-06-17T15:04:25.352Z,4.03
2018-06-17T15:06:54.242Z,5.83
2018-06-17T15:09:23.116Z,8.50
2018-06-17T15:11:51.957Z,3.60
2018-06-17T15:14:20.796Z,6.30
2018-06-17T15:16:49.648Z,4.43
2018-06-17T15:19:18.504Z,7.37
2018-06-17T15:21:47.360Z,10.53
2018-06-17T15:24:16.229Z,12.10
2018-06-17T15:26:45.108Z,8.20
2018-06-17T15:29:13.953Z,5.67
2018-06-17T15:31:48.196Z,6.93
2018-06-17T15:34:22.555Z,12.23
2018-06-17T15:36:56.907Z,6.13
2018-06-17T15:39:31.148Z,7.47
2018-06-17T15:42:00.020Z,10.57
2018-06-17T15:44:28.880Z,14.50
2018-06-17T15:46:57.783Z,6.73
2018-06-17T15:49:26.632Z,5.90
2018-06-17T15:51:55.496Z,13.83
2018-06-17T15:54:24.135Z,6.47
2018-06-17T15:56:52.893Z,14.03
2018-06-17T15:59:21.741Z,6.57
2018-06-17T16:01:50.580Z,8.70
2018-06-17T16:04:19.452Z,6.33
2018-06-17T16:06:48.321Z,6.10
2018-06-17T16:09:17.182Z,10.53
2018-06-17T16:12:54.269Z,7.57
2018-06-17T16:15:28.533Z,5.80
2018-06-17T16:18:02.932Z,7.43
2018-06-17T16:20:37.276Z,9.17
2018-06-17T16:23:06.202Z,5.73
2018-06-17T16:25:34.998Z,12.57
2018-06-17T16:28:03.935Z,5.07
2018-06-17T16:30:32.801Z,6.10
2018-06-17T16:33:01.676Z,7.47
2018-06-17T16:35:30.520Z,6.30
2018-06-17T16:37:59.384Z,6.50
2018-06-17T16:40:28.020Z,6.63
2018-06-17T16:42:56.760Z,6.23
2018-06-17T16:45:25.638Z,7.77
2018-06-17T16:47:54.468Z,10.60
2018-06-17T16:50:23.320Z,13.23
2018-06-17T16:52:57.536Z,9.50
2018-06-17T16:55:31.856Z,9.37
2018-06-17T16:58:05.715Z,9.20
2018-06-17T17:00:34.463Z,8.63
2018-06-17T17:03:03.308Z,8.27
2018-06-17T17:05:32.173Z,7.13
2018-06-17T17:08:01.031Z,6.03
2018-06-17T17:10:29.780Z,4.13
2018-06-17T17:12:58.512Z,4.10
2018-06-17T17:15:27.360Z,3.67
2018-06-17T17:17:56.224Z,4.00
2018-06-17T17:20:25.068Z,8.10
2018-06-17T17:22:53.925Z,4.00
2018-06-17T17:25:22.792Z,3.20
2018-06-17T17:27:51.632Z,4.57
2018-06-17T17:30:20.485Z,3.40
2018-06-17T17:32:54.713Z,3.10
2018-06-17T17:35:28.764Z,4.00
2018-06-17T17:38:02.995Z,4.00
2018-06-17T17:40:37.412Z,5.77
2018-06-17T17:43:06.265Z,3.87
2018-06-17T17:45:35.686Z,6.57
2018-06-17T17:48:04.529Z,4.00
2018-06-17T17:50:33.392Z,5.90
2018-06-17T17:53:02.236Z,4.97
2018-06-17T17:55:31.083Z,4.07
2018-06-17T17:57:59.968Z,4.27
2018-06-17T18:00:28.808Z,6.13
2018-06-17T18:02:57.690Z,6.07
2018-06-17T18:05:26.540Z,4.73
2018-06-17T18:07:55.380Z,7.03
2018-06-17T18:10:24.230Z,4.60
2018-06-17T18:12:53.093Z,5.13
2018-06-17T18:15:21.952Z,5.70
2018-06-17T18:17:50.804Z,3.70
2018-06-17T18:20:19.564Z,4.10
2018-06-17T18:22:48.300Z,4.40
2018-06-17T18:25:22.420Z,5.97
2018-06-17T18:27:56.895Z,6.70
2018-06-17T18:30:31.181Z,3.70
2018-06-17T18:33:05.362Z,7.57
2018-06-17T18:35:39.444Z,4.20
2018-06-17T18:38:08.360Z,6.80
2018-06-17T18:40:37.222Z,7.03
2018-06-17T18:43:06.207Z,5.37
2018-06-17T18:45:35.007Z,7.47
2018-06-17T18:48:03.872Z,8.80
2018-06-17T18:50:32.741Z,5.47
2018-06-17T18:53:01.593Z,9.10
2018-06-17T18:55:30.444Z,7.03
2018-06-17T18:57:59.296Z,8.43
2018-06-17T19:00:28.144Z,6.27
2018-06-17T19:02:57.000Z,7.07
2018-06-17T19:05:25.888Z,7.70
2018-06-17T19:07:54.768Z,7.97
2018-06-17T19:10:29.089Z,6.93
2018-06-17T19:13:03.441Z,6.50
2018-06-17T19:15:37.845Z,7.00
2018-06-17T19:18:09.152Z,7.33
2018-06-17T19:20:38.491Z,6.03
2018-06-17T19:23:07.360Z,6.67
2018-06-17T19:25:36.300Z,6.00
2018-06-17T19:28:05.232Z,6.63
2018-06-17T19:30:34.090Z,5.33
2018-06-17T19:33:02.952Z,6.03
2018-06-17T19:35:31.800Z,6.90
2018-06-17T19:38:00.951Z,7.63
2018-06-17T19:40:29.740Z,5.90
2018-06-17T19:42:58.564Z,7.83
2018-06-17T19:45:27.456Z,7.57
2018-06-17T19:47:56.284Z,6.17
2018-06-17T19:50:30.485Z,6.87
2018-06-17T19:53:04.688Z,6.47
2018-06-17T19:55:39.023Z,8.37
2018-06-17T19:58:13.189Z,9.97
2018-06-17T20:00:43.549Z,8.40
2018-06-17T20:03:12.405Z,7.00
2018-06-17T20:05:41.328Z,7.57
2018-06-17T20:08:10.192Z,8.87
2018-06-17T20:10:39.036Z,9.00
2018-06-17T20:13:07.893Z,7.30
2018-06-17T20:15:36.760Z,7.80
2018-06-17T20:18:05.708Z,8.50
2018-06-17T20:20:34.565Z,11.87
2018-06-17T20:23:03.446Z,8.50
2018-06-17T20:25:32.300Z,8.33
2018-06-17T20:28:01.148Z,17.50
2018-06-17T20:30:29.984Z,7.70
2018-06-17T20:33:04.309Z,10.50
2018-06-17T20:35:38.716Z,10.43
2018-06-17T20:38:13.057Z,8.57
2018-06-17T20:40:47.318Z,8.20
2018-06-17T20:43:21.689Z,8.10
2018-06-17T20:45:50.532Z,10.57
2018-06-17T20:48:19.380Z,10.40
2018-06-17T20:50:48.122Z,11.00
2018-06-17T20:53:16.841Z,9.20
2018-06-17T20:55:45.694Z,11.87
2018-06-17T20:58:14.560Z,11.10
2018-06-17T21:00:43.424Z,10.23
2018-06-17T21:03:12.297Z,9.47
2018-06-17T21:05:41.194Z,11.03
2018-06-17T21:08:10.068Z,9.50
2018-06-17T21:10:38.696Z,9.83
2018-06-17T21:13:07.423Z,9.90
2018-06-17T21:15:36.055Z,10.53
2018-06-17T21:18:04.780Z,11.97
2018-06-17T21:20:39.166Z,10.80
2018-06-17T21:23:13.544Z,10.73
2018-06-17T21:25:47.707Z,10.57
2018-06-17T21:28:16.564Z,9.80
2018-06-17T21:30:45.442Z,12.03
2018-06-17T21:33:14.280Z,10.43
2018-06-17T21:35:43.136Z,10.77
2018-06-17T21:38:11.996Z,11.67
2018-06-17T21:40:40.856Z,12.47
2018-06-17T21:43:09.723Z,10.17
2018-06-17T21:45:38.576Z,11.20
2018-06-17T21:48:07.440Z,11.57
2018-06-17T21:50:36.289Z,9.50
2018-06-17T21:53:05.140Z,10.23
2018-06-17T21:55:33.984Z,10.10
2018-06-17T21:58:02.830Z,9.73
2018-06-17T22:00:31.664Z,10.13
2018-06-17T22:03:00.521Z,10.17
2018-06-17T22:05:29.156Z,12.47
2018-06-17T22:09:05.928Z,11.03
2018-06-17T22:11:40.131Z,9.40
2018-06-17T22:14:14.339Z,9.40
2018-06-17T22:16:48.502Z,10.60
2018-06-17T22:19:17.348Z,10.80
2018-06-17T22:21:46.192Z,8.93
2018-06-17T22:24:15.069Z,13.00
2018-06-17T22:26:43.948Z,11.40
2018-06-17T22:29:12.836Z,11.77
2018-06-17T22:31:41.689Z,10.83
2018-06-17T22:34:10.564Z,14.83
2018-06-17T22:36:39.416Z,10.53
2018-06-17T22:39:09.136Z,12.23
2018-06-17T22:41:38.530Z,12.60
2018-06-17T22:44:07.476Z,11.93
2018-06-17T22:46:36.368Z,10.13
2018-06-17T22:49:05.456Z,12.93
2018-06-17T22:51:34.336Z,16.80
2018-06-17T22:54:14.652Z,11.23
2018-06-17T22:56:49.124Z,12.00
2018-06-17T22:59:23.356Z,11.40
2018-06-17T23:02:56.184Z,10.87
2018-06-17T23:05:30.557Z,14.13
2018-06-17T23:08:04.747Z,10.67
2018-06-17T23:10:33.652Z,13.53
2018-06-17T23:13:02.532Z,11.30
2018-06-17T23:15:31.388Z,15.23
2018-06-17T23:18:00.276Z,9.67
2018-06-17T23:20:29.130Z,11.27
2018-06-17T23:22:57.987Z,12.63
2018-06-17T23:25:26.835Z,14.90
2018-06-17T23:27:55.710Z,9.43
2018-06-17T23:30:24.592Z,12.47
2018-06-17T23:32:53.460Z,11.53
2018-06-17T23:35:22.299Z,9.77
2018-06-17T23:37:51.175Z,18.33
2018-06-17T23:40:20.022Z,13.27
2018-06-17T23:42:48.880Z,14.83
2018-06-17T23:45:17.720Z,11.27
2018-06-17T23:47:52.042Z,19.03
2018-06-17T23:50:26.308Z,10.93
2018-06-17T23:53:00.680Z,10.27
2018-06-17T23:55:34.776Z,11.17
2018-06-17T23:58:03.632Z,13.17
